Time;durP1;ratioP1;P1;durP2;ratioP2;P2;SDS_P1;SDS_P2;PMS_P1;PMS_P2;Temp;Humidity;BMP_temperature;BMP_pressure;BME280_temperature;BME280_humidity;BME280_pressure;Samples;Min_cycle;Max_cycle;Signal;HPM_P1;HPM_P2
2021/10/20 00:02:12;;;;;;;8.53;7.50;;;;;;;14.87;85.10;100449.16;5037889;28;20577;-73
2021/10/20 00:04:39;;;;;;;9.23;7.30;;;;;;;14.88;84.93;100448.16;5052599;28;20633;-74
2021/10/20 00:07:05;;;;;;;7.80;6.97;;;;;;;14.89;84.39;100447.19;5047370;28;20225;-74
2021/10/20 00:09:33;;;;;;;7.60;6.90;;;;;;;14.88;84.33;100442.81;5060486;28;20207;-74
2021/10/20 00:12:00;;;;;;;8.80;7.47;;;;;;;14.88;84.11;100435.63;5052486;28;20212;-75
2021/10/20 00:14:26;;;;;;;6.93;6.23;;;;;;;14.89;84.14;100445.34;5061009;28;20209;-74
2021/10/20 00:16:53;;;;;;;7.87;7.07;;;;;;;14.89;84.08;100437.31;5058670;28;20226;-74
2021/10/20 00:19:19;;;;;;;8.17;6.70;;;;;;;14.92;83.66;100433.53;5032382;28;20230;-72
2021/10/20 00:21:46;;;;;;;7.47;6.77;;;;;;;14.92;83.61;100434.38;5032092;28;20687;-74
2021/10/20 00:24:13;;;;;;;7.70;7.00;;;;;;;14.93;83.40;100430.72;5046349;28;20211;-74
2021/10/20 00:26:40;;;;;;;7.53;6.70;;;;;;;14.92;83.19;100425.47;5032750;28;20237;-74
2021/10/20 00:29:07;;;;;;;7.60;6.43;;;;;;;14.92;82.73;100430.84;5032029;28;20652;-74
2021/10/20 00:31:34;;;;;;;6.83;6.10;;;;;;;14.93;82.94;100422.66;5038196;28;20667;-74
2021/10/20 00:34:00;;;;;;;7.40;6.43;;;;;;;14.92;82.57;100418.28;5040805;28;20585;-74
2021/10/20 00:36:27;;;;;;;7.33;6.13;;;;;;;14.92;82.44;100417.44;5046243;28;20214;-71
2021/10/20 00:38:53;;;;;;;8.13;6.07;;;;;;;14.92;82.10;100401.34;5041849;28;20691;-73
2021/10/20 00:41:20;;;;;;;7.03;6.33;;;;;;;14.92;82.00;100404.03;5033895;28;20213;-73
2021/10/20 00:43:48;;;;;;;6.50;5.90;;;;;;;14.93;81.82;100397.69;5040258;28;20212;-74
2021/10/20 00:46:25;;;;;;;6.60;5.90;;;;;;;14.91;81.34;100396.97;5038585;28;20206;-75
2021/10/20 00:48:52;;;;;;;5.97;5.37;;;;;;;14.91;81.67;100399.66;5039211;28;20223;-74
2021/10/20 00:51:18;;;;;;;7.10;6.23;;;;;;;14.88;81.57;100383.81;5037747;28;20206;-74
2021/10/20 00:53:45;;;;;;;6.23;5.63;;;;;;;14.87;81.46;100382.97;5050842;28;20566;-74
2021/10/20 00:56:12;;;;;;;6.00;5.40;;;;;;;14.87;81.10;100379.44;5051047;28;20214;-73
2021/10/20 00:58:38;;;;;;;5.80;5.20;;;;;;;14.88;81.04;100375.78;5049413;28;20216;-73
2021/10/20 01:01:06;;;;;;;7.23;6.00;;;;;;;14.86;81.22;100377.75;5050753;28;20201;-74
2021/10/20 01:03:32;;;;;;;6.60;5.97;;;;;;;14.85;80.94;100368.88;5048000;28;20206;-73
2021/10/20 01:05:59;;;;;;;6.93;5.07;;;;;;;14.85;80.99;100368.88;5032798;28;20210;-74
2021/10/20 01:08:25;;;;;;;6.27;5.13;;;;;;;14.86;80.87;100367.03;5048130;28;20232;-74
2021/10/20 01:10:52;;;;;;;5.87;5.27;;;;;;;14.85;80.45;100357.28;5037444;28;20210;-73
2021/10/20 01:13:19;;;;;;;6.10;5.20;;;;;;;14.84;80.22;100356.44;5044092;28;20206;-73
2021/10/20 01:15:45;;;;;;;6.80;5.33;;;;;;;14.84;80.35;100367.16;5042890;28;20209;-74
2021/10/20 01:18:13;;;;;;;7.53;5.80;;;;;;;14.82;80.39;100352.19;5050881;28;20229;-74
2021/10/20 01:20:44;;;;;;;5.47;4.63;;;;;;;14.81;80.13;100348.66;5041297;28;20234;-72
2021/10/20 01:23:12;;;;;;;5.50;4.80;;;;;;;14.81;80.04;100356.69;5048525;28;20220;-74
2021/10/20 01:25:38;;;;;;;5.73;5.13;;;;;;;14.80;80.00;100346.09;5042628;28;20576;-72
2021/10/20 01:28:05;;;;;;;5.53;5.03;;;;;;;14.79;80.06;100347.09;5046788;28;20225;-76
2021/10/20 01:30:31;;;;;;;6.07;5.47;;;;;;;14.79;80.17;100336.34;5050482;28;20209;-74
2021/10/20 01:32:58;;;;;;;5.87;5.07;;;;;;;14.79;80.25;100331.84;5038052;28;20214;-74
2021/10/20 01:35:24;;;;;;;6.27;5.17;;;;;;;14.77;79.99;100328.44;5035286;28;20218;-74
2021/10/20 01:37:51;;;;;;;6.73;4.93;;;;;;;14.74;80.12;100334.06;5035780;28;20608;-74
2021/10/20 01:40:19;;;;;;;6.00;5.00;;;;;;;14.73;79.71;100323.47;5035264;28;20236;-74
2021/10/20 01:42:45;;;;;;;5.60;5.00;;;;;;;14.70;79.69;100311.19;5035870;28;20264;-74
2021/10/20 01:45:13;;;;;;;5.30;4.80;;;;;;;14.70;79.64;100315.69;5035587;28;20687;-75
2021/10/20 01:47:39;;;;;;;6.30;5.07;;;;;;;14.71;80.06;100312.03;5037623;28;20230;-74
2021/10/20 01:50:08;;;;;;;6.13;5.20;;;;;;;14.68;79.58;100310.47;5042689;28;20209;-76
2021/10/20 01:52:35;;;;;;;5.77;4.50;;;;;;;14.67;79.58;100299.91;5048289;28;20207;-74
2021/10/20 01:55:01;;;;;;;5.97;4.73;;;;;;;14.69;79.67;100297.94;5064957;28;20208;-74
2021/10/20 01:57:29;;;;;;;5.27;4.77;;;;;;;14.69;79.75;100297.94;5037664;28;20244;-74
2021/10/20 01:59:56;;;;;;;5.97;4.83;;;;;;;14.70;79.59;100296.91;5046776;28;20229;-74
2021/10/20 02:02:22;;;;;;;5.37;4.83;;;;;;;14.69;79.75;100297.94;5063523;28;20572;-74
2021/10/20 02:04:50;;;;;;;6.23;4.50;;;;;;;14.68;79.70;100290.88;5047534;28;20212;-74
2021/10/20 02:07:17;;;;;;;5.10;4.60;;;;;;;14.69;79.45;100295.25;5054933;28;20749;-74
2021/10/20 02:09:44;;;;;;;7.83;5.00;;;;;;;14.68;79.08;100288.19;5068695;28;20651;-74
2021/10/20 02:12:11;;;;;;;5.10;4.60;;;;;;;14.70;79.15;100275.47;5052965;28;20206;-74
2021/10/20 02:14:39;;;;;;;4.73;4.23;;;;;;;14.71;79.03;100271.81;5055163;28;20214;-74
2021/10/20 02:17:06;;;;;;;5.00;4.50;;;;;;;14.70;78.72;100270.97;5041954;28;20230;-74
2021/10/20 02:19:33;;;;;;;5.60;4.47;;;;;;;14.71;78.41;100263.78;5041845;28;20230;-75
2021/10/20 02:22:02;;;;;;;6.03;5.03;;;;;;;14.71;78.05;100261.09;5050266;28;20221;-73
2021/10/20 02:24:28;;;;;;;5.13;4.40;;;;;;;14.71;78.46;100258.41;5046073;28;20209;-74
2021/10/20 02:26:55;;;;;;;5.27;4.50;;;;;;;14.71;78.60;100271.81;5054535;28;20233;-74
2021/10/20 02:29:22;;;;;;;6.27;4.20;;;;;;;14.73;78.17;100257.31;5045468;28;20206;-74
2021/10/20 02:31:50;;;;;;;4.93;4.10;;;;;;;14.73;77.92;100257.31;5048947;28;20209;-74
2021/10/20 02:34:18;;;;;;;5.13;4.43;;;;;;;14.73;77.55;100243.06;5034811;28;20233;-74
2021/10/20 02:36:45;;;;;;;5.83;4.47;;;;;;;14.73;77.54;100241.22;5047787;28;20222;-74
2021/10/20 02:39:11;;;;;;;4.60;4.20;;;;;;;14.74;77.17;100234.03;5045713;28;20221;-74
2021/10/20 02:41:38;;;;;;;4.30;3.90;;;;;;;14.72;77.00;100236.84;5047344;28;20209;-75
2021/10/20 02:44:06;;;;;;;5.13;4.30;;;;;;;14.72;77.29;100226.13;5036035;28;20209;-74
2021/10/20 02:46:33;;;;;;;4.37;3.97;;;;;;;14.71;76.92;100220.88;5033334;28;20228;-74
2021/10/20 02:49:01;;;;;;;5.33;4.27;;;;;;;14.69;76.49;100222.88;5047633;28;20210;-74
2021/10/20 02:51:29;;;;;;;4.97;3.83;;;;;;;14.69;76.71;100222.88;5034695;28;20213;-73
2021/10/20 02:53:57;;;;;;;4.70;4.27;;;;;;;14.68;76.65;100222.03;5033464;28;20210;-74
2021/10/20 02:56:23;;;;;;;5.03;4.10;;;;;;;14.71;76.49;100219.06;5034105;28;20221;-74
2021/10/20 02:58:50;;;;;;;3.97;3.53;;;;;;;14.70;76.63;100222.72;5040464;28;20193;-74
2021/10/20 03:01:17;;;;;;;4.50;3.67;;;;;;;14.70;76.14;100216.50;5047776;28;20248;-74
2021/10/20 03:03:45;;;;;;;4.87;3.97;;;;;;;14.71;76.22;100210.16;5045128;28;20582;-72
2021/10/20 03:06:13;;;;;;;3.80;3.40;;;;;;;14.71;75.96;100215.53;5037973;28;20240;-75
2021/10/20 03:08:40;;;;;;;5.13;4.10;;;;;;;14.71;75.61;100213.69;5033113;28;20198;-75
2021/10/20 03:11:06;;;;;;;4.70;4.20;;;;;;;14.71;75.68;100208.34;5054990;28;20201;-73
2021/10/20 03:13:33;;;;;;;4.10;3.70;;;;;;;14.71;75.96;100197.63;5064108;28;20212;-73
2021/10/20 03:16:00;;;;;;;4.07;3.57;;;;;;;14.72;75.74;100202.00;5048706;28;20217;-74
2021/10/20 03:18:26;;;;;;;5.30;3.93;;;;;;;14.74;75.59;100207.22;5039039;28;20229;-73
2021/10/20 03:20:53;;;;;;;4.93;4.20;;;;;;;14.74;75.21;100193.81;5065411;28;20609;-74
2021/10/20 03:23:21;;;;;;;3.93;3.53;;;;;;;14.77;75.33;100193.56;5038074;28;20214;-73
2021/10/20 03:25:47;;;;;;;4.10;3.67;;;;;;;14.79;75.36;100192.44;5033713;28;20198;-73
2021/10/20 03:28:14;;;;;;;5.13;4.30;;;;;;;14.80;75.07;100198.66;5033595;28;20233;-74
2021/10/20 03:30:40;;;;;;;4.10;3.53;;;;;;;14.79;74.91;100200.47;5033461;28;20206;-73
2021/10/20 03:33:07;;;;;;;4.60;3.57;;;;;;;14.81;74.68;100186.94;5047329;28;20293;-72
2021/10/20 03:35:33;;;;;;;4.17;3.67;;;;;;;14.81;74.64;100195.00;5033694;28;20224;-73
2021/10/20 03:38:00;;;;;;;4.80;3.90;;;;;;;14.81;74.69;100189.63;5033371;28;20758;-73
2021/10/20 03:40:28;;;;;;;4.20;3.70;;;;;;;14.79;74.37;100180.88;5032929;28;20237;-74
2021/10/20 03:42:54;;;;;;;8.40;3.90;;;;;;;14.81;74.25;100173.53;5033700;28;20210;-73
2021/10/20 03:45:21;;;;;;;3.90;3.60;;;;;;;14.82;73.96;100176.09;5033321;28;20210;-74
2021/10/20 03:47:47;;;;;;;5.33;3.90;;;;;;;14.82;73.75;100169.88;5033376;28;20227;-73
2021/10/20 03:50:14;;;;;;;3.97;3.37;;;;;;;14.80;73.53;100164.66;5033082;28;20213;-74
2021/10/20 03:52:40;;;;;;;3.97;3.57;;;;;;;14.81;73.58;100165.50;5036710;28;20288;-73
2021/10/20 03:55:07;;;;;;;5.30;3.93;;;;;;;14.80;73.60;100155.75;5052474;28;20687;-73
2021/10/20 03:57:37;;;;;;;4.60;3.83;;;;;;;14.80;73.87;100155.75;5045691;28;20233;-73
2021/10/20 04:00:06;;;;;;;4.70;3.77;;;;;;;14.79;73.51;100144.19;5044273;28;20719;-74
2021/10/20 04:02:33;;;;;;;4.10;3.60;;;;;;;14.78;73.58;100142.50;5041787;28;20214;-74
2021/10/20 04:04:59;;;;;;;5.03;3.77;;;;;;;14.78;73.62;100130.91;5036475;28;20222;-74
2021/10/20 04:07:26;;;;;;;4.13;3.53;;;;;;;14.79;73.37;100127.25;5048167;28;20232;-74
2021/10/20 04:09:54;;;;;;;4.97;3.70;;;;;;;14.77;73.04;100119.34;5052403;28;20300;-74
2021/10/20 04:12:20;;;;;;;3.67;3.33;;;;;;;14.80;73.05;100120.91;5048571;28;20205;-75
2021/10/20 04:14:48;;;;;;;4.37;3.37;;;;;;;14.81;72.96;100106.53;5058112;28;20197;-73
2021/10/20 04:17:14;;;;;;;3.87;3.40;;;;;;;14.80;73.06;100121.75;5051258;28;20232;-73
2021/10/20 04:19:41;;;;;;;4.00;3.63;;;;;;;14.82;72.79;100116.25;5065553;28;20200;-72
2021/10/20 04:22:07;;;;;;;3.90;3.60;;;;;;;14.81;73.11;100099.31;5049764;28;20248;-74
2021/10/20 04:24:34;;;;;;;3.87;3.40;;;;;;;14.85;72.73;100105.28;5064461;28;20678;-73
2021/10/20 04:27:01;;;;;;;4.63;3.43;;;;;;;14.87;72.34;100097.91;5044204;28;20221;-73
2021/10/20 04:29:27;;;;;;;4.00;3.50;;;;;;;14.89;72.57;100101.31;5041756;28;20206;-73
2021/10/20 04:31:55;;;;;;;4.43;3.80;;;;;;;14.90;72.30;100087.75;5035928;28;20210;-74
2021/10/20 04:34:21;;;;;;;4.20;3.80;;;;;;;14.93;71.97;100094.69;5054269;28;20211;-72
2021/10/20 04:36:48;;;;;;;4.10;3.70;;;;;;;14.94;71.78;100077.63;5051701;28;20226;-74
2021/10/20 04:39:14;;;;;;;4.20;3.53;;;;;;;14.91;71.72;100072.53;5045318;28;20202;-73
2021/10/20 04:41:41;;;;;;;4.17;3.37;;;;;;;14.93;71.53;100082.13;5044618;28;20233;-74
2021/10/20 04:44:08;;;;;;;4.03;3.40;;;;;;;14.93;71.37;100078.59;5048655;28;20201;-74
2021/10/20 04:46:34;;;;;;;4.57;3.33;;;;;;;14.94;71.35;100074.94;5058662;28;20223;-73
2021/10/20 04:49:02;;;;;;;4.70;3.33;;;;;;;14.95;71.54;100082.00;5046758;28;20205;-76
2021/10/20 04:51:29;;;;;;;3.60;3.30;;;;;;;14.95;71.28;100068.59;5051950;28;20467;-74
2021/10/20 04:53:55;;;;;;;4.63;3.33;;;;;;;14.93;71.10;100063.34;5057607;28;20600;-74
2021/10/20 04:56:22;;;;;;;4.50;3.77;;;;;;;14.96;70.98;100054.19;5045427;28;20221;-74
2021/10/20 04:58:48;;;;;;;4.30;3.17;;;;;;;14.95;70.90;100047.13;5102984;22;20224;-73
2021/10/20 05:01:15;;;;;;;3.97;3.27;;;;;;;14.96;70.86;100054.19;5073080;28;20608;-74
2021/10/20 05:03:41;;;;;;;4.70;3.87;;;;;;;14.97;70.99;100063.09;5071404;28;20215;-74
2021/10/20 05:06:09;;;;;;;4.20;3.80;;;;;;;14.98;70.63;100052.22;5071707;28;20211;-74
2021/10/20 05:08:36;;;;;;;3.87;3.30;;;;;;;15.00;70.51;100050.25;5050050;28;20233;-74
2021/10/20 05:11:02;;;;;;;5.63;3.80;;;;;;;15.01;70.34;100051.09;5048855;28;20714;-73
2021/10/20 05:13:29;;;;;;;3.93;3.43;;;;;;;15.06;70.16;100046.13;5034810;28;20218;-72
2021/10/20 05:15:55;;;;;;;4.70;3.53;;;;;;;15.09;70.04;100045.88;5039026;28;20206;-74
2021/10/20 05:18:22;;;;;;;6.37;4.03;;;;;;;15.09;69.95;100052.06;5038259;28;20233;-72
2021/10/20 05:20:48;;;;;;;3.93;3.40;;;;;;;15.07;69.79;100043.31;5045904;28;20221;-71
2021/10/20 05:23:16;;;;;;;4.03;3.63;;;;;;;15.10;69.64;100044.88;5036572;28;20215;-73
2021/10/20 05:25:43;;;;;;;4.30;3.90;;;;;;;15.09;69.94;100046.72;5043867;28;20216;-73
2021/10/20 05:28:10;;;;;;;5.17;4.03;;;;;;;15.11;69.34;100042.06;5045232;28;20237;-73
2021/10/20 05:30:36;;;;;;;4.73;3.73;;;;;;;15.10;69.54;100048.41;5048195;28;20207;-74
2021/10/20 05:33:03;;;;;;;5.37;4.00;;;;;;;15.11;69.19;100046.56;5032103;28;20704;-73
2021/10/20 05:35:29;;;;;;;3.70;3.30;;;;;;;15.10;69.17;100031.47;5031064;28;20213;-74
2021/10/20 05:37:56;;;;;;;7.63;4.13;;;;;;;15.10;69.24;100036.84;5031166;28;20237;-73
2021/10/20 05:40:25;;;;;;;3.90;3.50;;;;;;;15.07;69.11;100027.22;5030428;28;20221;-73
2021/10/20 05:42:51;;;;;;;5.53;3.80;;;;;;;15.09;69.08;100022.56;5031136;28;20210;-74
2021/10/20 05:45:18;;;;;;;5.67;3.80;;;;;;;15.09;69.19;100022.56;5032439;28;20241;-73
2021/10/20 05:47:45;;;;;;;4.27;3.77;;;;;;;15.10;68.86;100026.94;5043259;28;20222;-73
2021/10/20 05:50:12;;;;;;;5.47;4.23;;;;;;;15.13;69.14;100021.31;5044133;28;20667;-71
2021/10/20 05:52:39;;;;;;;4.30;3.83;;;;;;;15.12;69.25;100026.81;5032016;28;20585;-71
2021/10/20 05:55:06;;;;;;;4.53;3.63;;;;;;;15.12;69.09;100019.63;5030376;28;20232;-71
2021/10/20 05:57:37;;;;;;;5.47;4.10;;;;;;;15.13;68.93;100039.25;5030362;28;20249;-71
2021/10/20 06:00:05;;;;;;;5.23;4.20;;;;;;;15.16;68.89;100030.91;5030758;28;20301;-71
2021/10/20 06:02:32;;;;;;;4.43;3.77;;;;;;;15.17;69.03;100013.84;5044797;28;20226;-71
2021/10/20 06:04:58;;;;;;;4.00;3.63;;;;;;;15.18;68.80;100010.16;5044331;28;20593;-74
2021/10/20 06:07:25;;;;;;;3.97;3.57;;;;;;;15.19;69.10;100022.59;5043727;28;20233;-73
2021/10/20 06:09:51;;;;;;;5.67;3.60;;;;;;;15.18;68.81;100021.75;5040110;28;20233;-73
2021/10/20 06:12:18;;;;;;;4.60;4.10;;;;;;;15.17;68.97;100020.03;5043374;28;20209;-74
2021/10/20 06:14:46;;;;;;;4.70;4.10;;;;;;;15.17;68.79;100020.03;5045247;28;20591;-73
2021/10/20 06:17:12;;;;;;;4.40;3.73;;;;;;;15.17;68.87;100022.72;5044869;28;20228;-73
2021/10/20 06:19:39;;;;;;;5.00;3.80;;;;;;;15.15;68.89;100022.03;5044944;28;20678;-74
2021/10/20 06:22:05;;;;;;;3.90;3.50;;;;;;;15.14;68.96;100023.00;5048222;28;20763;-72
2021/10/20 06:24:32;;;;;;;3.70;3.40;;;;;;;15.13;68.76;100013.25;5046905;28;20284;-73
2021/10/20 06:26:58;;;;;;;4.27;3.80;;;;;;;15.12;68.89;100008.88;5046074;28;20202;-72
2021/10/20 06:29:26;;;;;;;4.40;4.00;;;;;;;15.12;68.89;100010.72;5046457;28;20213;-72
2021/10/20 06:31:54;;;;;;;4.70;3.60;;;;;;;15.08;69.23;100010.16;5043294;28;20212;-72
2021/10/20 06:34:21;;;;;;;4.23;3.67;;;;;;;15.06;69.35;100011.28;5048675;28;20206;-73
2021/10/20 06:36:47;;;;;;;5.53;3.87;;;;;;;15.04;69.64;100014.13;5045211;28;20213;-73
2021/10/20 06:39:20;;;;;;;4.23;3.33;;;;;;;15.03;69.25;100016.94;5048436;28;20205;-74
2021/10/20 06:41:47;;;;;;;4.00;3.60;;;;;;;15.01;69.65;100010.88;5048907;28;20253;-74
2021/10/20 06:44:13;;;;;;;4.53;3.53;;;;;;;14.98;69.44;100009.31;5051280;28;20701;-70
2021/10/20 06:46:40;;;;;;;5.63;3.90;;;;;;;14.96;69.77;100010.44;5051646;28;20213;-71
2021/10/20 06:49:08;;;;;;;3.90;3.50;;;;;;;14.94;69.80;99998.03;5049506;28;20222;-72
2021/10/20 06:51:34;;;;;;;5.13;3.63;;;;;;;14.91;69.94;100006.34;5049824;28;20207;-73
2021/10/20 06:54:01;;;;;;;4.60;4.03;;;;;;;14.90;70.20;99998.44;5044758;28;20202;-73
2021/10/20 06:56:27;;;;;;;3.90;3.50;;;;;;;14.90;70.13;99991.25;5045799;28;20213;-72
2021/10/20 06:58:54;;;;;;;3.87;3.57;;;;;;;14.88;70.16;100005.78;5048417;28;20237;-74
2021/10/20 07:01:20;;;;;;;4.73;3.90;;;;;;;14.86;70.34;100005.09;5049695;28;20234;-73
2021/10/20 07:03:47;;;;;;;5.80;3.73;;;;;;;14.86;70.29;100013.13;5048038;28;20679;-73
2021/10/20 07:06:15;;;;;;;4.33;3.77;;;;;;;14.85;70.24;100009.59;5049886;28;20579;-70
2021/10/20 07:08:41;;;;;;;4.97;3.83;;;;;;;14.87;70.59;100009.44;5050326;28;20249;-71
2021/10/20 07:11:08;;;;;;;4.17;3.77;;;;;;;14.89;70.00;100002.09;5050070;28;20199;-70
2021/10/20 07:13:35;;;;;;;4.70;3.73;;;;;;;14.90;70.32;99995.75;5049807;28;20204;-70
2021/10/20 07:16:02;;;;;;;4.10;3.57;;;;;;;14.90;69.94;99995.75;5049142;28;20233;-73
2021/10/20 07:18:29;;;;;;;4.10;3.70;;;;;;;14.93;70.14;99990.13;5050259;28;20670;-73
2021/10/20 07:20:56;;;;;;;5.33;3.77;;;;;;;14.95;70.43;99985.47;5050577;28;20208;-73
2021/10/20 07:23:23;;;;;;;4.07;3.67;;;;;;;14.98;70.07;99974.47;5050250;28;20685;-73
2021/10/20 07:25:50;;;;;;;4.67;3.83;;;;;;;15.01;70.15;99982.22;5047560;28;20197;-73
2021/10/20 07:28:16;;;;;;;5.33;3.80;;;;;;;15.02;70.18;99980.41;5044914;28;20230;-72
2021/10/20 07:30:43;;;;;;;3.77;3.37;;;;;;;15.03;70.30;99980.25;5043543;28;20213;-73
2021/10/20 07:33:10;;;;;;;3.90;3.47;;;;;;;15.05;69.77;99972.88;5043879;28;20205;-73
2021/10/20 07:35:36;;;;;;;5.33;3.97;;;;;;;15.06;69.77;99969.22;5044566;28;20206;-73
2021/10/20 07:38:03;;;;;;;4.67;4.10;;;;;;;15.08;69.74;99972.59;5045518;28;20233;-73
2021/10/20 07:40:31;;;;;;;4.03;3.63;;;;;;;15.11;69.57;99966.97;5046484;28;20201;-71
2021/10/20 07:42:57;;;;;;;4.10;3.53;;;;;;;15.13;69.58;99964.16;5044918;28;20218;-70
2021/10/20 07:45:25;;;;;;;6.50;3.53;;;;;;;15.14;69.63;99960.47;5047583;28;20925;-72
2021/10/20 07:47:52;;;;;;;4.97;4.10;;;;;;;15.17;69.39;99965.56;5043341;28;20254;-74
2021/10/20 07:50:21;;;;;;;3.87;3.50;;;;;;;15.19;69.01;99963.59;5043841;28;20212;-70
2021/10/20 07:52:49;;;;;;;5.47;3.47;;;;;;;15.20;69.20;99951.88;5044064;28;20953;-71
2021/10/20 07:55:17;;;;;;;4.93;3.57;;;;;;;15.21;68.77;99954.41;5042374;28;20202;-71
2021/10/20 07:57:46;;;;;;;4.17;3.77;;;;;;;15.24;68.70;99947.88;5044941;28;20237;-72
2021/10/20 08:00:14;;;;;;;6.70;4.07;;;;;;;15.25;68.58;99946.88;5040865;28;20226;-72
2021/10/20 08:02:40;;;;;;;4.80;4.40;;;;;;;15.28;68.42;99946.59;5041876;28;20218;-74
2021/10/20 08:05:11;;;;;;;4.63;4.23;;;;;;;15.29;68.81;99938.41;5042950;28;20197;-71
2021/10/20 08:07:43;;;;;;;5.37;4.27;;;;;;;15.33;68.59;99919.34;5041421;28;20229;-72
2021/10/20 08:10:10;;;;;;;5.60;4.10;;;;;;;15.34;68.40;99923.72;5044996;28;20200;-72
2021/10/20 08:12:36;;;;;;;7.10;4.00;;;;;;;15.35;68.00;99918.22;5044104;28;20217;-72
2021/10/20 08:15:06;;;;;;;5.20;3.80;;;;;;;15.38;68.29;99920.63;5042845;28;20210;-72
2021/10/20 08:17:33;;;;;;;4.77;4.27;;;;;;;15.39;68.06;99916.09;5042119;28;20246;-72
2021/10/20 08:19:59;;;;;;;5.13;4.17;;;;;;;15.42;67.61;99910.41;5041434;28;20212;-72
2021/10/20 08:22:26;;;;;;;5.07;4.03;;;;;;;15.43;67.36;99910.28;5045319;28;20234;-73
2021/10/20 08:24:53;;;;;;;6.53;4.50;;;;;;;15.46;67.40;99911.81;5044621;28;20214;-73
2021/10/20 08:27:20;;;;;;;5.37;4.10;;;;;;;15.48;67.19;99910.69;5043088;28;20318;-73
2021/10/20 08:29:47;;;;;;;4.70;3.80;;;;;;;15.49;67.05;99912.38;5045292;28;20198;-73
2021/10/20 08:32:15;;;;;;;5.20;4.03;;;;;;;15.48;67.28;99916.06;5043471;28;20198;-72
2021/10/20 08:34:41;;;;;;;5.73;4.17;;;;;;;15.49;67.29;99911.53;5045736;28;20217;-73
2021/10/20 08:37:08;;;;;;;6.87;4.20;;;;;;;15.51;67.11;99906.88;5044265;28;20229;-72
2021/10/20 08:39:34;;;;;;;6.13;4.47;;;;;;;15.51;67.26;99901.50;5048469;28;20285;-73
2021/10/20 08:42:01;;;;;;;6.80;4.63;;;;;;;15.53;67.27;99878.91;5044019;28;20701;-73
2021/10/20 08:44:32;;;;;;;4.60;3.60;;;;;;;15.57;67.08;99871.44;5043241;28;20208;-72
2021/10/20 08:46:59;;;;;;;5.70;5.10;;;;;;;15.59;67.05;99872.94;5040753;28;20207;-71
2021/10/20 08:49:27;;;;;;;4.80;3.77;;;;;;;15.63;66.83;99870.81;5040096;28;20210;-70
2021/10/20 08:51:53;;;;;;;4.90;4.07;;;;;;;15.65;66.96;99844.69;5046376;28;20576;-71
2021/10/20 08:54:21;;;;;;;4.93;3.70;;;;;;;15.68;66.84;99814.88;5043714;28;20216;-71
2021/10/20 08:56:47;;;;;;;4.17;3.77;;;;;;;15.70;66.75;99820.94;5045387;28;20203;-72
2021/10/20 08:59:15;;;;;;;5.77;3.57;;;;;;;15.73;66.75;99812.59;5044040;28;20202;-71
2021/10/20 09:01:42;;;;;;;4.20;3.27;;;;;;;15.76;66.20;99806.91;5045733;28;20226;-72
2021/10/20 09:04:09;;;;;;;5.77;3.97;;;;;;;15.80;66.13;99813.66;5045102;28;20210;-71
2021/10/20 09:06:37;;;;;;;5.27;3.80;;;;;;;15.85;66.17;99797.94;5048062;28;20210;-71
2021/10/20 09:09:06;;;;;;;6.40;4.10;;;;;;;15.91;66.40;99791.13;5047742;28;20602;-73
2021/10/20 09:11:33;;;;;;;4.93;3.50;;;;;;;16.00;66.07;99794.72;5046781;28;20208;-73
2021/10/20 09:14:01;;;;;;;3.87;3.43;;;;;;;16.06;65.79;99802.19;5042048;28;20203;-75
2021/10/20 09:16:28;;;;;;;4.33;3.90;;;;;;;16.11;65.86;99798.06;5040329;28;22136;-70
2021/10/20 09:18:57;;;;;;;5.93;5.17;;;;;;;16.19;65.65;99794.56;5037360;28;20230;-72
2021/10/20 09:21:24;;;;;;;4.47;4.07;;;;;;;16.22;65.56;99797.81;5043363;28;20203;-72
2021/10/20 09:23:52;;;;;;;5.13;3.80;;;;;;;16.28;65.58;99802.56;5046056;28;20203;-72
2021/10/20 09:26:19;;;;;;;3.90;3.30;;;;;;;16.32;65.20;99777.06;5045032;28;20210;-70
2021/10/20 09:28:46;;;;;;;4.50;3.40;;;;;;;16.38;65.21;99770.22;5044547;28;20743;-72
2021/10/20 09:31:13;;;;;;;4.10;3.73;;;;;;;16.44;65.36;99752.66;5042087;28;20203;-72
2021/10/20 09:33:41;;;;;;;3.73;3.30;;;;;;;16.48;65.17;99765.59;5039935;28;20212;-72
2021/10/20 09:36:13;;;;;;;4.63;3.40;;;;;;;16.55;64.69;99739.78;5045050;28;20661;-72
2021/10/20 09:38:42;;;;;;;3.93;3.40;;;;;;;16.61;64.91;99730.25;5044809;28;20239;-72
2021/10/20 09:41:10;;;;;;;3.50;3.20;;;;;;;16.72;64.92;99748.84;5046166;28;20208;-72
2021/10/20 09:43:41;;;;;;;4.97;3.47;;;;;;;16.85;64.95;99735.81;5049157;28;20219;-72
2021/10/20 09:46:07;;;;;;;5.27;3.13;;;;;;;16.96;64.58;99714.03;5045947;28;20201;-72
2021/10/20 09:48:40;;;;;;;4.00;3.60;;;;;;;17.04;64.34;99717.75;5046828;28;20227;-72
2021/10/20 09:51:09;;;;;;;3.40;3.00;;;;;;;17.12;64.21;99715.09;5043273;28;20278;-72
2021/10/20 09:53:38;;;;;;;5.67;3.47;;;;;;;17.20;63.62;99728.56;5048822;28;20583;-72
2021/10/20 09:56:21;;;;;;;4.90;3.20;;;;;;;17.25;63.65;99743.25;5051718;28;20207;-73
2021/10/20 09:58:49;;;;;;;3.93;3.17;;;;;;;17.24;63.61;99738.84;5050087;28;20728;-72
2021/10/20 10:01:17;;;;;;;3.20;2.90;;;;;;;17.22;63.51;99731.94;5052329;28;20287;-72
2021/10/20 10:03:43;;;;;;;3.37;2.97;;;;;;;17.21;63.55;99751.78;5048378;28;20222;-72
2021/10/20 10:06:10;;;;;;;3.53;3.23;;;;;;;17.19;63.67;99749.28;5049703;28;20209;-72
2021/10/20 10:08:36;;;;;;;4.50;3.03;;;;;;;17.23;63.53;99730.94;5050841;28;22238;-72
2021/10/20 10:11:03;;;;;;;4.80;3.67;;;;;;;17.28;64.11;99736.69;5048851;28;20211;-73
2021/10/20 10:13:36;;;;;;;4.47;3.57;;;;;;;17.34;64.16;99725.28;5048675;28;20210;-72
2021/10/20 10:16:04;;;;;;;6.97;3.57;;;;;;;17.41;64.18;99709.31;5046532;28;20217;-72
2021/10/20 10:18:32;;;;;;;4.30;3.53;;;;;;;17.47;64.24;99724.81;5048428;28;20229;-73
2021/10/20 10:20:58;;;;;;;5.60;3.30;;;;;;;17.55;64.24;99733.78;5048175;28;20206;-72
2021/10/20 10:23:27;;;;;;;5.83;3.70;;;;;;;17.65;64.18;99725.56;5045687;28;20231;-72
2021/10/20 10:25:59;;;;;;;4.43;4.03;;;;;;;17.74;64.13;99716.50;5044819;28;20264;-72
2021/10/20 10:28:28;;;;;;;5.27;3.57;;;;;;;17.82;64.03;99705.75;5042966;28;20230;-70
2021/10/20 10:30:57;;;;;;;3.70;3.40;;;;;;;17.91;63.97;99707.44;5048960;28;20209;-71
2021/10/20 10:33:25;;;;;;;5.43;3.67;;;;;;;18.00;64.05;99684.88;5043520;28;20207;-72
2021/10/20 10:36:13;;;;;;;5.13;3.53;;;;;;;18.11;63.78;99685.53;5048810;28;20204;-73
2021/10/20 10:38:41;;;;;;;4.27;3.87;;;;;;;18.18;63.60;99681.16;5042758;28;20222;-71
2021/10/20 10:41:27;;;;;;;4.70;3.50;;;;;;;18.31;63.60;99681.50;5048361;28;20525;-73
2021/10/20 10:44:15;;;;;;;4.00;3.70;;;;;;;18.43;63.36;99680.16;5048353;28;20246;-72
2021/10/20 10:46:54;;;;;;;5.50;3.67;;;;;;;18.51;62.67;99682.81;5045771;28;22358;-71
2021/10/20 10:49:26;;;;;;;4.87;3.37;;;;;;;18.56;62.70;99680.44;5046165;28;20204;-73
2021/10/20 10:52:16;;;;;;;4.00;3.70;;;;;;;18.65;62.64;99681.28;5047170;28;20214;-74
2021/10/20 10:54:54;;;;;;;5.77;3.70;;;;;;;18.75;62.42;99667.63;5042257;28;20208;-74
2021/10/20 10:59:54;;;;;;;5.33;4.07;;;;;;;18.87;62.15;99666.22;5041753;28;20598;-73
2021/10/20 11:02:46;;;;;;;3.77;3.37;;;;;;;18.94;62.24;99661.81;5039992;28;20263;-73
2021/10/20 11:05:13;;;;;;;3.97;3.60;;;;;;;18.97;62.00;99654.22;5042709;28;20215;-73
2021/10/20 11:07:44;;;;;;;5.23;3.97;;;;;;;19.01;61.93;99635.81;5041683;28;20598;-72
2021/10/20 11:10:11;;;;;;;4.03;3.50;;;;;;;19.02;61.57;99632.09;5045263;28;20661;-73
2021/10/20 11:12:38;;;;;;;4.10;3.80;;;;;;;19.02;61.34;99637.50;5049228;28;20601;-72
2021/10/20 11:15:05;;;;;;;4.57;3.77;;;;;;;19.02;61.54;99624.00;5046397;28;20208;-72
2021/10/20 11:17:32;;;;;;;4.17;3.77;;;;;;;19.04;61.78;99605.78;5046482;28;20228;-74
2021/10/20 11:20:05;;;;;;;4.67;4.27;;;;;;;19.10;61.86;99588.88;5044094;28;20216;-73
2021/10/20 11:22:31;;;;;;;4.57;3.70;;;;;;;19.14;62.04;99584.81;5037759;28;20237;-77
2021/10/20 11:25:00;;;;;;;3.90;3.53;;;;;;;19.15;61.18;99607.25;5043257;28;20706;-71
2021/10/20 11:27:27;;;;;;;4.43;3.43;;;;;;;19.14;61.37;99617.22;5041667;28;20663;-74
2021/10/20 11:29:54;;;;;;;4.07;3.73;;;;;;;19.14;61.50;99622.59;5049028;28;20260;-73
2021/10/20 11:32:22;;;;;;;4.47;3.57;;;;;;;19.13;61.32;99610.13;5046940;28;20210;-75
2021/10/20 11:34:50;;;;;;;4.87;3.47;;;;;;;19.13;61.27;99595.78;5046254;28;20200;-72